createdAt,value
2023-01-27T00:00:27.893Z,69
2023-01-27T00:01:44.000Z,69
2023-01-27T00:03:00.115Z,68.9
2023-01-27T00:04:16.455Z,69
2023-01-27T00:05:32.481Z,69
2023-01-27T00:06:48.681Z,68.9
2023-01-27T00:08:05.020Z,69
2023-01-27T00:09:21.213Z,69
2023-01-27T00:10:37.406Z,69
2023-01-27T00:11:53.439Z,69
2023-01-27T00:13:08.648Z,69.1
2023-01-27T00:14:24.974Z,69
2023-01-27T00:15:41.168Z,69
2023-01-27T00:16:57.355Z,69
2023-01-27T00:18:13.394Z,69
2023-01-27T00:19:29.733Z,69.2
2023-01-27T00:20:45.782Z,69.1
2023-01-27T00:22:02.111Z,69
2023-01-27T00:23:18.302Z,69.1
2023-01-27T00:24:34.341Z,69
2023-01-27T00:25:50.678Z,69.1
2023-01-27T00:27:06.874Z,69.1
2023-01-27T00:28:22.912Z,69.1
2023-01-27T00:29:38.266Z,69.1
2023-01-27T00:30:54.452Z,69.1
2023-01-27T00:32:10.644Z,69
2023-01-27T00:33:26.843Z,69.1
2023-01-27T00:34:42.872Z,69.1
2023-01-27T00:35:59.209Z,69.1
2023-01-27T00:37:15.253Z,69
2023-01-27T00:38:31.586Z,69
2023-01-27T00:39:47.786Z,69
2023-01-27T00:41:03.817Z,69
2023-01-27T00:42:20.152Z,69.1
2023-01-27T00:43:36.351Z,69
2023-01-27T00:44:52.545Z,69
2023-01-27T00:46:07.736Z,69
2023-01-27T00:47:23.934Z,69.1
2023-01-27T00:48:40.133Z,69.1
2023-01-27T00:49:56.305Z,69
2023-01-27T00:51:12.346Z,69
2023-01-27T00:52:28.690Z,69.1
2023-01-27T00:53:44.888Z,69
2023-01-27T00:55:01.059Z,69.1
2023-01-27T00:56:17.256Z,69.1
2023-01-27T00:57:33.436Z,69
2023-01-27T00:58:49.638Z,69.1
2023-01-27T01:00:05.829Z,69
2023-01-27T01:01:22.010Z,69
2023-01-27T01:02:37.056Z,69
2023-01-27T01:03:53.415Z,69
2023-01-27T01:05:09.440Z,69
2023-01-27T01:06:25.788Z,69.1
2023-01-27T01:07:41.978Z,69.1
2023-01-27T01:08:58.156Z,69.1
2023-01-27T01:10:14.178Z,69.2
2023-01-27T01:11:30.542Z,69.1
2023-01-27T01:12:46.735Z,69.1
2023-01-27T01:14:02.930Z,69.1
2023-01-27T01:15:18.932Z,69.1
2023-01-27T01:16:35.139Z,69.1
2023-01-27T01:17:51.490Z,69.1
2023-01-27T01:19:06.695Z,69.1
2023-01-27T01:20:22.886Z,69.1
2023-01-27T01:21:38.901Z,69.1
2023-01-27T01:22:55.085Z,69
2023-01-27T01:24:11.457Z,69.1
2023-01-27T01:25:27.637Z,69
2023-01-27T01:26:43.662Z,69.1
2023-01-27T01:27:59.858Z,69.1
2023-01-27T01:29:16.210Z,69.1
2023-01-27T01:30:32.400Z,69.1
2023-01-27T01:31:48.580Z,69.1
2023-01-27T01:33:04.775Z,69
2023-01-27T01:34:20.958Z,69
2023-01-27T01:35:36.163Z,69.1
2023-01-27T01:36:52.184Z,69
2023-01-27T01:38:08.553Z,69.1
2023-01-27T01:39:24.736Z,69.1
2023-01-27T01:40:40.761Z,69.2
2023-01-27T01:41:57.116Z,69.1
2023-01-27T01:43:13.315Z,69.1
2023-01-27T01:44:29.485Z,69.1
2023-01-27T01:45:45.675Z,69.2
2023-01-27T01:47:01.704Z,69.1
2023-01-27T01:48:18.054Z,69.1
2023-01-27T01:49:34.078Z,69.1
2023-01-27T01:50:50.441Z,69.1
2023-01-27T01:52:05.647Z,69.1
2023-01-27T01:53:21.670Z,69.1
2023-01-27T01:54:38.033Z,69
2023-01-27T01:55:54.207Z,69.1
2023-01-27T01:57:10.404Z,69.1
2023-01-27T01:58:26.589Z,69.2
2023-01-27T01:59:42.595Z,69.2
2023-01-27T02:00:58.974Z,69.1
2023-01-27T02:02:15.156Z,69.2
2023-01-27T02:03:31.337Z,69.2
2023-01-27T02:04:47.527Z,69.2
2023-01-27T02:06:03.543Z,69.1
2023-01-27T02:07:19.737Z,69.1
2023-01-27T02:08:35.130Z,69.2
2023-01-27T02:09:51.305Z,69.1
2023-01-27T02:11:07.501Z,69.1
2023-01-27T02:12:23.681Z,69.1
2023-01-27T02:13:39.882Z,69.1
2023-01-27T02:14:55.877Z,69.1
2023-01-27T02:16:12.251Z,69.1
2023-01-27T02:17:28.451Z,69.1
2023-01-27T02:18:44.449Z,69.1
2023-01-27T02:20:00.830Z,69.1
2023-01-27T02:21:17.016Z,69
2023-01-27T02:22:33.195Z,69
2023-01-27T02:23:49.379Z,69
2023-01-27T02:25:04.600Z,69.1
2023-01-27T02:26:20.793Z,69.1
2023-01-27T02:27:36.791Z,69.1
2023-01-27T02:28:53.165Z,69.1
2023-01-27T02:30:09.359Z,69.1
2023-01-27T02:31:25.535Z,69.1
2023-01-27T02:32:41.545Z,69.1
2023-01-27T02:33:57.919Z,69.1
2023-01-27T02:35:14.107Z,69.1
2023-01-27T02:36:30.302Z,69.1
2023-01-27T02:37:46.298Z,69.1
2023-01-27T02:39:02.675Z,69
2023-01-27T02:40:18.856Z,69.1
2023-01-27T02:41:34.066Z,69.1
2023-01-27T02:42:50.250Z,69.1
2023-01-27T02:44:06.276Z,69.1
2023-01-27T02:45:22.453Z,69.1
2023-01-27T02:46:38.818Z,69.1
2023-01-27T02:47:54.838Z,69.1
2023-01-27T02:49:11.214Z,69.1
2023-01-27T02:50:27.398Z,69.1
2023-01-27T02:51:43.589Z,69.1
2023-01-27T02:52:59.582Z,69
2023-01-27T02:54:15.964Z,69.1
2023-01-27T02:55:32.158Z,69.1
2023-01-27T02:56:48.336Z,69.1
2023-01-27T02:58:03.554Z,69.1
2023-01-27T02:59:19.727Z,69.1
2023-01-27T03:00:35.730Z,69
2023-01-27T03:01:52.103Z,69.1
2023-01-27T03:03:08.310Z,69.2
2023-01-27T03:04:24.487Z,69.1
2023-01-27T03:05:40.687Z,69.2
2023-01-27T03:06:56.866Z,69.2
2023-01-27T03:08:13.064Z,69.2
2023-01-27T03:09:29.242Z,69.1
2023-01-27T03:10:45.429Z,69.1
2023-01-27T03:12:01.616Z,69.1
2023-01-27T03:13:17.820Z,69.1
2023-01-27T03:14:33.024Z,69.1
2023-01-27T03:15:49.220Z,69.1
2023-01-27T03:17:05.198Z,69.1
2023-01-27T03:18:21.584Z,69
2023-01-27T03:19:37.786Z,69
2023-01-27T03:20:53.973Z,69.1
2023-01-27T03:22:10.163Z,69.1
2023-01-27T03:23:26.146Z,69.1
2023-01-27T03:24:42.337Z,69
2023-01-27T03:25:58.722Z,69.1
2023-01-27T03:27:14.911Z,69.1
2023-01-27T03:28:31.108Z,69
2023-01-27T03:29:47.288Z,69.1
2023-01-27T03:31:03.599Z,69
2023-01-27T03:32:19.781Z,69
2023-01-27T03:33:35.987Z,69.1
2023-01-27T03:34:51.981Z,69
2023-01-27T03:36:08.368Z,69.1
2023-01-27T03:37:24.539Z,69.1
2023-01-27T03:38:40.544Z,69
2023-01-27T03:39:56.921Z,69.1
2023-01-27T03:41:12.907Z,69.1
2023-01-27T03:42:29.312Z,69
2023-01-27T03:43:45.499Z,69
2023-01-27T03:45:01.673Z,69
2023-01-27T03:46:17.863Z,69
2023-01-27T03:47:33.075Z,69
2023-01-27T03:48:49.276Z,69.1
2023-01-27T03:50:05.460Z,69
2023-01-27T03:51:21.451Z,69
2023-01-27T03:52:37.822Z,69.1
2023-01-27T03:53:54.021Z,69
2023-01-27T03:55:09.028Z,69
2023-01-27T03:56:25.412Z,68.9
2023-01-27T03:57:41.602Z,69
2023-01-27T03:58:57.599Z,69
2023-01-27T04:00:13.991Z,69
2023-01-27T04:01:29.971Z,69
2023-01-27T04:02:46.160Z,69
2023-01-27T04:04:02.352Z,69
2023-01-27T04:05:18.753Z,69
2023-01-27T04:06:34.931Z,69.1
2023-01-27T04:07:51.122Z,69
2023-01-27T04:09:07.119Z,69.1
2023-01-27T04:10:23.498Z,69.1
2023-01-27T04:11:38.511Z,69
2023-01-27T04:12:54.702Z,68.9
2023-01-27T04:14:11.087Z,68.9
2023-01-27T04:15:27.077Z,69
2023-01-27T04:16:43.474Z,69
2023-01-27T04:17:59.657Z,68.9
2023-01-27T04:19:15.645Z,69
2023-01-27T04:20:32.025Z,68.9
2023-01-27T04:21:48.219Z,68.9
2023-01-27T04:23:04.198Z,68.9
2023-01-27T04:24:20.589Z,68.8
2023-01-27T04:25:36.581Z,68.9
2023-01-27T04:26:52.980Z,69
2023-01-27T04:28:08.167Z,68.9
2023-01-27T04:29:24.358Z,68.9
2023-01-27T04:30:40.538Z,68.8
2023-01-27T04:31:56.523Z,68.9
2023-01-27T04:33:12.914Z,68.9
2023-01-27T04:34:28.898Z,68.9
2023-01-27T04:35:45.296Z,68.9
2023-01-27T04:37:01.484Z,68.9
2023-01-27T04:38:17.465Z,68.9
2023-01-27T04:39:33.654Z,68.9
2023-01-27T04:40:50.051Z,68.9
2023-01-27T04:42:06.246Z,68.9
2023-01-27T04:43:22.222Z,68.9
2023-01-27T04:44:37.631Z,68.9
2023-01-27T04:45:53.805Z,68.9
2023-01-27T04:47:09.786Z,68.9
2023-01-27T04:48:26.184Z,68.9
2023-01-27T04:49:42.368Z,68.9
2023-01-27T04:50:58.570Z,69
2023-01-27T04:52:14.746Z,68.9
2023-01-27T04:53:30.941Z,68.9
2023-01-27T04:54:47.128Z,68.9
2023-01-27T04:56:03.324Z,69
2023-01-27T04:57:19.513Z,69
2023-01-27T04:58:35.694Z,69
2023-01-27T04:59:51.880Z,68.9
2023-01-27T05:01:07.072Z,68.9
2023-01-27T05:02:23.060Z,68.9
2023-01-27T05:03:39.454Z,68.9
2023-01-27T05:04:55.425Z,68.9
2023-01-27T05:06:11.830Z,68.9
2023-01-27T05:07:28.008Z,68.9
2023-01-27T05:08:44.210Z,68.9
2023-01-27T05:10:00.170Z,68.9
2023-01-27T05:11:16.579Z,68.9
2023-01-27T05:12:32.540Z,68.9
2023-01-27T05:13:48.962Z,68.9
2023-01-27T05:15:05.139Z,68.9
2023-01-27T05:16:21.333Z,68.9
2023-01-27T05:17:36.321Z,68.9
2023-01-27T05:18:52.722Z,68.9
2023-01-27T05:20:08.912Z,68.9
2023-01-27T05:21:25.101Z,68.9
2023-01-27T05:22:41.286Z,68.9
2023-01-27T05:23:57.476Z,68.9
2023-01-27T05:25:13.441Z,68.9
2023-01-27T05:26:29.852Z,68.9
2023-01-27T05:27:45.817Z,69
2023-01-27T05:29:01.995Z,68.9
2023-01-27T05:30:18.403Z,68.9
2023-01-27T05:31:34.603Z,69
2023-01-27T05:32:50.560Z,69
2023-01-27T05:34:05.990Z,68.9
2023-01-27T05:35:22.176Z,68.9
2023-01-27T05:36:38.128Z,68.9
2023-01-27T05:37:54.553Z,68.8
2023-01-27T05:39:10.743Z,68.8
2023-01-27T05:40:26.698Z,68.8
2023-01-27T05:41:43.104Z,68.9
2023-01-27T05:42:59.285Z,68.9
2023-01-27T05:44:15.265Z,68.9
2023-01-27T05:45:31.655Z,68.9
2023-01-27T05:46:47.854Z,68.9
2023-01-27T05:48:03.813Z,68.9
2023-01-27T05:49:20.220Z,68.9
2023-01-27T05:50:35.417Z,68.9
2023-01-27T05:51:51.609Z,68.9
2023-01-27T05:53:07.790Z,68.9
2023-01-27T05:54:23.772Z,68.9
2023-01-27T05:55:39.963Z,69
2023-01-27T05:56:56.352Z,68.9
2023-01-27T05:58:12.545Z,68.9
2023-01-27T05:59:28.745Z,68.9
2023-01-27T06:00:44.922Z,69
2023-01-27T06:02:01.114Z,69
2023-01-27T06:03:17.097Z,69
2023-01-27T06:04:33.489Z,69
2023-01-27T06:05:49.677Z,69
2023-01-27T06:07:04.873Z,68.9
2023-01-27T06:08:21.069Z,68.9
2023-01-27T06:09:37.246Z,68.9
2023-01-27T06:10:53.237Z,68.9
2023-01-27T06:12:09.421Z,68.9
2023-01-27T06:13:25.818Z,69
2023-01-27T06:14:42.008Z,69
2023-01-27T06:15:57.971Z,68.9
2023-01-27T06:17:14.376Z,69
2023-01-27T06:18:30.564Z,68.9
2023-01-27T06:19:46.743Z,68.9
2023-01-27T06:21:02.717Z,69
2023-01-27T06:22:19.130Z,68.9
2023-01-27T06:23:34.116Z,68.9
2023-01-27T06:24:50.513Z,68.9
2023-01-27T06:26:06.485Z,68.9
2023-01-27T06:27:22.903Z,68.9
2023-01-27T06:28:39.082Z,68.8
2023-01-27T06:29:55.259Z,68.9
2023-01-27T06:31:11.465Z,68.8
2023-01-27T06:32:27.421Z,68.9
2023-01-27T06:33:43.604Z,68.8
2023-01-27T06:35:00.009Z,68.7
2023-01-27T06:36:16.215Z,68.5
2023-01-27T06:37:32.384Z,68.5
2023-01-27T06:38:48.367Z,68.5
2023-01-27T06:40:03.774Z,68.6
2023-01-27T06:41:19.751Z,68.7
2023-01-27T06:42:35.939Z,68.7
2023-01-27T06:43:52.345Z,68.7
2023-01-27T06:45:08.541Z,68.6
2023-01-27T06:46:24.505Z,68.7
2023-01-27T06:47:40.694Z,68.9
2023-01-27T06:48:56.868Z,68.7
2023-01-27T06:50:13.292Z,68.8
2023-01-27T06:51:29.240Z,68.6
2023-01-27T06:52:45.663Z,68.6
2023-01-27T06:54:01.847Z,68.7
2023-01-27T06:55:18.035Z,68.6
2023-01-27T06:56:33.234Z,68.7
2023-01-27T06:57:49.415Z,68.6
2023-01-27T06:59:05.603Z,68.7
2023-01-27T07:00:21.804Z,68.6
2023-01-27T07:01:37.978Z,68.6
2023-01-27T07:02:54.180Z,68.6
2023-01-27T07:04:10.147Z,68.6
2023-01-27T07:05:26.542Z,68.6
2023-01-27T07:06:42.742Z,68.6
2023-01-27T07:07:58.922Z,68.7
2023-01-27T07:09:14.895Z,68.7
2023-01-27T07:10:31.067Z,68.7
2023-01-27T07:11:47.260Z,68.6
2023-01-27T07:13:02.698Z,68.7
2023-01-27T07:14:18.884Z,68.7
2023-01-27T07:15:35.062Z,68.7
2023-01-27T07:16:51.257Z,68.7
2023-01-27T07:18:07.430Z,68.7
2023-01-27T07:19:23.637Z,68.7
2023-01-27T07:20:39.810Z,68.7
2023-01-27T07:21:56.002Z,68.7
2023-01-27T07:23:11.964Z,68.7
2023-01-27T07:24:28.381Z,68.7
2023-01-27T07:25:44.563Z,68.7
2023-01-27T07:27:00.528Z,68.6
2023-01-27T07:28:16.938Z,68.7
2023-01-27T07:29:32.140Z,68.6
2023-01-27T07:30:48.333Z,68.7
2023-01-27T07:32:04.520Z,68.7
2023-01-27T07:33:20.701Z,68.7
2023-01-27T07:34:36.656Z,68.7
2023-01-27T07:35:52.852Z,68.5
2023-01-27T07:37:09.267Z,68.3
2023-01-27T07:38:25.456Z,68.3
2023-01-27T07:39:41.419Z,68.1
2023-01-27T07:40:57.840Z,68.2
2023-01-27T07:42:13.789Z,68.3
2023-01-27T07:43:30.215Z,68.3
2023-01-27T07:44:46.151Z,68.3
2023-01-27T07:46:01.601Z,68.3
2023-01-27T07:47:17.792Z,68.5
2023-01-27T07:48:33.730Z,68.5
2023-01-27T07:49:49.927Z,68.3
2023-01-27T07:51:06.351Z,68.5
2023-01-27T07:52:22.530Z,68.5
2023-01-27T07:53:38.719Z,68.5
2023-01-27T07:54:54.899Z,68.5
2023-01-27T07:56:11.095Z,68.5
2023-01-27T07:57:27.290Z,68.3
2023-01-27T07:58:43.468Z,68.2
2023-01-27T07:59:59.655Z,68.3
2023-01-27T08:01:15.606Z,68.3
2023-01-27T08:02:31.041Z,68.3
2023-01-27T08:03:47.235Z,68.3
2023-01-27T08:05:03.181Z,68.2
2023-01-27T08:06:19.603Z,68.3
2023-01-27T08:07:35.790Z,68.2
2023-01-27T08:08:51.988Z,68.1
2023-01-27T08:10:07.199Z,68.2
2023-01-27T08:11:23.375Z,68.2
2023-01-27T08:12:39.330Z,68.2
2023-01-27T08:13:55.512Z,68.2
2023-01-27T08:15:11.937Z,68.3
2023-01-27T08:16:28.132Z,68.3
2023-01-27T08:17:44.322Z,68.3
2023-01-27T08:19:00.512Z,68.2
2023-01-27T08:20:16.452Z,68.2
2023-01-27T08:21:32.651Z,68.3
2023-01-27T08:22:49.069Z,68.3
2023-01-27T08:24:05.019Z,68.2
2023-01-27T08:25:21.450Z,68.2
2023-01-27T08:26:36.659Z,68.2
2023-01-27T08:27:52.832Z,68.2
2023-01-27T08:29:09.023Z,68.2
2023-01-27T08:30:25.205Z,68.3
2023-01-27T08:31:41.389Z,68.2
2023-01-27T08:32:57.351Z,68.2
2023-01-27T08:34:13.523Z,68.1
2023-01-27T08:35:29.719Z,68.2
2023-01-27T08:36:46.156Z,68.3
2023-01-27T08:38:02.341Z,68.1
2023-01-27T08:39:18.279Z,68.3
2023-01-27T08:40:34.700Z,68.3
2023-01-27T08:41:50.897Z,68.2
2023-01-27T08:43:05.854Z,68.1
2023-01-27T08:44:22.281Z,68.1
2023-01-27T08:45:38.468Z,68
2023-01-27T08:46:54.669Z,67.9
2023-01-27T08:48:10.846Z,67.9
2023-01-27T08:49:27.032Z,68
2023-01-27T08:50:42.988Z,68
2023-01-27T08:51:59.164Z,68
2023-01-27T08:53:15.605Z,68
2023-01-27T08:54:31.785Z,68
2023-01-27T08:55:47.981Z,68
2023-01-27T08:57:04.166Z,68
2023-01-27T08:58:20.112Z,68
2023-01-27T08:59:35.555Z,68
2023-01-27T09:00:51.749Z,67.9
2023-01-27T09:02:07.936Z,67.9
2023-01-27T09:03:24.113Z,68
2023-01-27T09:04:40.054Z,68
2023-01-27T09:05:56.239Z,67.9
2023-01-27T09:07:12.677Z,67.9
2023-01-27T09:08:28.865Z,67.9
2023-01-27T09:09:45.048Z,67.9
2023-01-27T09:11:01.234Z,67.9
2023-01-27T09:12:17.428Z,67.9
2023-01-27T09:13:33.609Z,67.8
2023-01-27T09:14:49.553Z,67.8
2023-01-27T09:16:05.008Z,67.8
2023-01-27T09:17:20.935Z,67.7
2023-01-27T09:18:37.138Z,67.7
2023-01-27T09:19:53.560Z,67.7
2023-01-27T09:21:09.506Z,67.6
2023-01-27T09:22:25.952Z,67.6
2023-01-27T09:23:41.883Z,67.7
2023-01-27T09:24:58.069Z,67.7
2023-01-27T09:26:14.504Z,67.8
2023-01-27T09:27:30.000Z,67.7
2023-01-27T09:28:46.625Z,67.8
2023-01-27T09:30:02.809Z,67.7
2023-01-27T09:31:19.254Z,67.7
2023-01-27T09:32:34.214Z,67.7
2023-01-27T09:33:50.647Z,67.8
2023-01-27T09:35:06.842Z,67.8
2023-01-27T09:36:22.760Z,67.7
2023-01-27T09:37:39.216Z,67.8
2023-01-27T09:38:55.136Z,67.9
2023-01-27T09:40:11.588Z,67.8
2023-01-27T09:41:27.762Z,67.8
2023-01-27T09:42:43.696Z,67.7
2023-01-27T09:43:59.896Z,67.8
2023-01-27T09:45:16.333Z,67.8
2023-01-27T09:46:32.524Z,67.8
2023-01-27T09:47:48.696Z,67.8
2023-01-27T09:49:03.909Z,67.6
2023-01-27T09:50:20.092Z,67.4
2023-01-27T09:51:36.276Z,67.5
2023-01-27T09:52:52.473Z,67.3
2023-01-27T09:54:08.659Z,67.3
2023-01-27T09:55:24.849Z,67.5
2023-01-27T09:56:41.032Z,67.5
2023-01-27T09:57:57.227Z,67.5
2023-01-27T09:59:13.407Z,67.4
2023-01-27T10:00:29.590Z,67.5
2023-01-27T10:01:45.781Z,67.4
2023-01-27T10:03:01.978Z,67.5
2023-01-27T10:04:18.170Z,67.7
2023-01-27T10:05:33.376Z,67.7
2023-01-27T10:06:49.551Z,67.7
2023-01-27T10:08:05.726Z,67.6
2023-01-27T10:09:21.933Z,67.5
2023-01-27T10:10:38.115Z,67.3
2023-01-27T10:11:54.308Z,67.2
2023-01-27T10:13:10.474Z,67.1
2023-01-27T10:14:26.657Z,67.2
2023-01-27T10:15:42.870Z,67
2023-01-27T10:16:59.050Z,67
2023-01-27T10:18:15.245Z,67
2023-01-27T10:19:31.436Z,67
2023-01-27T10:20:47.594Z,66.9
2023-01-27T10:22:02.816Z,67
2023-01-27T10:23:19.013Z,67
2023-01-27T10:24:35.200Z,67
2023-01-27T10:25:51.378Z,67
2023-01-27T10:27:07.566Z,67.1
2023-01-27T10:28:23.749Z,67
2023-01-27T10:29:39.922Z,67
2023-01-27T10:30:56.126Z,67
2023-01-27T10:32:12.313Z,67.1
2023-01-27T10:33:28.501Z,67
2023-01-27T10:34:44.670Z,67
2023-01-27T10:36:00.886Z,67
2023-01-27T10:37:17.057Z,67
2023-01-27T10:38:32.263Z,66.9
2023-01-27T10:39:48.454Z,66.9
2023-01-27T10:41:04.641Z,66.9
2023-01-27T10:42:20.839Z,66.9
2023-01-27T10:43:37.026Z,66.8
2023-01-27T10:44:53.192Z,66.8
2023-01-27T10:46:09.375Z,66.7
2023-01-27T10:47:25.576Z,66.7
2023-01-27T10:48:41.779Z,66.7
2023-01-27T10:49:57.946Z,66.8
2023-01-27T10:51:14.140Z,66.7
2023-01-27T10:52:30.309Z,66.7
2023-01-27T10:53:46.528Z,66.7
2023-01-27T10:55:01.716Z,66.7
2023-01-27T10:56:17.907Z,66.6
2023-01-27T10:57:34.105Z,66.7
2023-01-27T10:58:50.267Z,66.7
2023-01-27T11:00:06.457Z,66.6
2023-01-27T11:01:22.668Z,66.6
2023-01-27T11:02:38.860Z,66.6
2023-01-27T11:03:55.039Z,66.6
2023-01-27T11:05:11.218Z,66.6
2023-01-27T11:06:27.417Z,66.6
2023-01-27T11:07:43.583Z,66.7
2023-01-27T11:08:59.795Z,66.6
2023-01-27T11:10:15.978Z,66.5
2023-01-27T11:11:31.178Z,66.5
2023-01-27T11:12:47.354Z,66.6
2023-01-27T11:14:03.529Z,66.6
2023-01-27T11:15:19.711Z,66.6
2023-01-27T11:16:35.922Z,66.6
2023-01-27T11:17:52.109Z,66.5
2023-01-27T11:19:08.301Z,66.5
2023-01-27T11:20:24.484Z,66.3
2023-01-27T11:21:40.694Z,66.3
2023-01-27T11:22:56.843Z,66.3
2023-01-27T11:24:13.027Z,66.3
2023-01-27T11:25:29.236Z,66.5
2023-01-27T11:26:45.434Z,66.5
2023-01-27T11:28:00.629Z,66.6
2023-01-27T11:29:16.824Z,66.5
2023-01-27T11:30:32.988Z,66.5
2023-01-27T11:31:49.205Z,66.3
2023-01-27T11:33:05.380Z,66.5
2023-01-27T11:34:21.534Z,66.5
2023-01-27T11:35:37.000Z,66.5
2023-01-27T11:36:53.941Z,66.5
2023-01-27T11:38:10.133Z,66.5
2023-01-27T11:39:26.311Z,66.5
2023-01-27T11:40:42.512Z,66.5
2023-01-27T11:41:58.694Z,66.5
2023-01-27T11:43:14.874Z,66.5
2023-01-27T11:44:30.081Z,66.5
2023-01-27T11:45:46.249Z,66.6
2023-01-27T11:47:02.471Z,66.6
2023-01-27T11:48:18.609Z,66.6
2023-01-27T11:49:34.807Z,66.5
2023-01-27T11:50:51.030Z,66.5
2023-01-27T11:52:07.181Z,66.6
2023-01-27T11:53:23.368Z,66.5
2023-01-27T11:54:39.596Z,66.3
2023-01-27T11:55:55.765Z,66.3
2023-01-27T11:57:11.958Z,66.3
2023-01-27T11:58:28.119Z,66.3
2023-01-27T11:59:44.339Z,66.3
2023-01-27T12:00:59.514Z,66.3
2023-01-27T12:02:15.697Z,66.3
2023-01-27T12:03:31.907Z,66.3
2023-01-27T12:04:48.107Z,66.3
2023-01-27T12:06:04.296Z,66.3
2023-01-27T12:07:20.488Z,66.3
2023-01-27T12:08:36.628Z,66.3
2023-01-27T12:09:52.817Z,66.5
2023-01-27T12:11:09.034Z,66.5
2023-01-27T12:12:25.221Z,66.7
2023-01-27T12:13:41.377Z,66.7
2023-01-27T12:14:57.559Z,66.6
2023-01-27T12:16:13.787Z,66.7
2023-01-27T12:17:28.985Z,66.7
2023-01-27T12:18:45.181Z,66.7
2023-01-27T12:20:01.375Z,66.7
2023-01-27T12:21:17.549Z,66.7
2023-01-27T12:22:33.737Z,66.6
2023-01-27T12:23:49.901Z,66.7
2023-01-27T12:25:05.133Z,66.7
2023-01-27T12:26:21.324Z,66.7
2023-01-27T12:27:37.522Z,66.7
2023-01-27T12:28:53.694Z,66.7
2023-01-27T12:30:09.883Z,66.7
2023-01-27T12:31:26.038Z,66.7
2023-01-27T12:32:42.262Z,66.6
2023-01-27T12:33:58.461Z,66.7
2023-01-27T12:35:14.650Z,66.6
2023-01-27T12:36:30.799Z,66.7
2023-01-27T12:37:47.013Z,66.7
2023-01-27T12:39:03.162Z,66.7
2023-01-27T12:40:19.398Z,66.8
2023-01-27T12:41:34.597Z,66.8
2023-01-27T12:42:50.783Z,66.8
2023-01-27T12:44:06.965Z,66.8
2023-01-27T12:45:23.153Z,66.9
2023-01-27T12:46:39.304Z,67
2023-01-27T12:47:55.486Z,67
2023-01-27T12:49:11.719Z,67
2023-01-27T12:50:27.908Z,67
2023-01-27T12:51:44.102Z,67
2023-01-27T12:53:00.282Z,67
2023-01-27T12:54:16.474Z,67
2023-01-27T12:55:32.653Z,67
2023-01-27T12:56:48.851Z,67.1
2023-01-27T12:58:04.047Z,67.1
2023-01-27T12:59:20.246Z,67
2023-01-27T13:00:36.370Z,67.1
2023-01-27T13:01:52.567Z,67
2023-01-27T13:03:08.798Z,67
2023-01-27T13:04:24.944Z,67
2023-01-27T13:05:41.127Z,67
2023-01-27T13:06:57.324Z,67.1
2023-01-27T13:08:13.547Z,67.1
2023-01-27T13:09:29.683Z,67.1
2023-01-27T13:10:45.923Z,67.2
2023-01-27T13:12:02.060Z,67.2
2023-01-27T13:13:18.243Z,67.2
2023-01-27T13:14:33.499Z,67.2
2023-01-27T13:15:49.645Z,67.2
2023-01-27T13:17:05.828Z,67.3
2023-01-27T13:18:22.022Z,67.2
2023-01-27T13:19:38.245Z,67.2
2023-01-27T13:20:54.442Z,67.3
2023-01-27T13:22:10.618Z,67.3
2023-01-27T13:23:26.816Z,67.3
2023-01-27T13:24:42.946Z,67.3
2023-01-27T13:25:59.152Z,67.3
2023-01-27T13:27:15.386Z,67.3
2023-01-27T13:28:31.563Z,67.3
2023-01-27T13:29:47.746Z,67.3
2023-01-27T13:31:02.964Z,67.3
2023-01-27T13:32:19.151Z,67.3
2023-01-27T13:33:35.335Z,67.4
2023-01-27T13:34:51.518Z,67.4
2023-01-27T13:36:07.712Z,67.4
2023-01-27T13:37:23.892Z,67.3
2023-01-27T13:38:40.018Z,67.3
2023-01-27T13:39:56.268Z,67.4
2023-01-27T13:41:12.450Z,67.4
2023-01-27T13:42:28.583Z,67.4
2023-01-27T13:43:44.834Z,67.4
2023-01-27T13:45:01.019Z,67.4
2023-01-27T13:46:17.208Z,67.4
2023-01-27T13:47:32.358Z,67.4
2023-01-27T13:48:48.600Z,67.4
2023-01-27T13:50:04.789Z,67.4
2023-01-27T13:51:20.977Z,67.4
2023-01-27T13:52:37.104Z,67.5
2023-01-27T13:53:53.351Z,67.5
2023-01-27T13:55:09.481Z,67.5
2023-01-27T13:56:25.713Z,67.5
2023-01-27T13:57:41.861Z,67.5
2023-01-27T13:58:58.106Z,67.5
2023-01-27T14:00:14.281Z,67.4
2023-01-27T14:01:30.474Z,67.5
2023-01-27T14:02:46.598Z,67.6
2023-01-27T14:04:01.870Z,67.6
2023-01-27T14:05:18.057Z,67.5
2023-01-27T14:06:34.249Z,67.5
2023-01-27T14:07:50.444Z,67.5
2023-01-27T14:09:06.615Z,67.5
2023-01-27T14:10:22.747Z,67.4
2023-01-27T14:11:39.003Z,67.5
2023-01-27T14:12:55.195Z,67.5
2023-01-27T14:14:11.375Z,67.5
2023-01-27T14:15:27.573Z,67.6
2023-01-27T14:16:43.769Z,67.5
2023-01-27T14:17:59.878Z,67.5
2023-01-27T14:19:16.145Z,67.5
2023-01-27T14:20:31.351Z,67.5
2023-01-27T14:21:47.477Z,67.4
2023-01-27T14:23:03.714Z,67.5
2023-01-27T14:24:19.913Z,67.5
2023-01-27T14:25:36.091Z,67.5
2023-01-27T14:26:52.295Z,67.5
2023-01-27T14:28:08.475Z,67.5
2023-01-27T14:29:24.661Z,67.5
2023-01-27T14:30:40.863Z,67.5
2023-01-27T14:31:57.042Z,67.6
2023-01-27T14:33:13.168Z,67.6
2023-01-27T14:34:29.364Z,67.6
2023-01-27T14:35:45.601Z,67.6
2023-01-27T14:37:00.742Z,67.6
2023-01-27T14:38:16.943Z,67.6
2023-01-27T14:39:33.191Z,67.5
2023-01-27T14:40:49.309Z,67.5
2023-01-27T14:42:05.572Z,67.6
2023-01-27T14:43:21.752Z,67.5
2023-01-27T14:44:37.954Z,67.6
2023-01-27T14:45:54.065Z,67.6
2023-01-27T14:47:10.270Z,67.6
2023-01-27T14:48:26.443Z,67.7
2023-01-27T14:49:42.700Z,67.7
2023-01-27T14:50:58.885Z,67.6
2023-01-27T14:52:15.094Z,67.6
2023-01-27T14:53:30.286Z,67.6
2023-01-27T14:54:46.485Z,67.6
2023-01-27T14:56:02.597Z,67.5
2023-01-27T14:57:18.865Z,67.6
2023-01-27T14:58:34.973Z,67.6
2023-01-27T14:59:51.171Z,67.6
2023-01-27T15:01:07.425Z,67.6
2023-01-27T15:02:23.616Z,67.6
2023-01-27T15:03:39.734Z,67.6
2023-01-27T15:04:55.981Z,67.6
2023-01-27T15:06:12.185Z,67.6
2023-01-27T15:07:28.288Z,67.6
2023-01-27T15:08:44.492Z,67.6
2023-01-27T15:09:59.761Z,67.6
2023-01-27T15:11:15.879Z,67.6
2023-01-27T15:12:32.066Z,67.7
2023-01-27T15:13:48.256Z,67.7
2023-01-27T15:15:04.526Z,67.7
2023-01-27T15:16:20.633Z,67.7
2023-01-27T15:17:36.896Z,67.8
2023-01-27T15:18:53.087Z,67.7
2023-01-27T15:20:09.283Z,67.8
2023-01-27T15:21:25.474Z,67.8
2023-01-27T15:22:41.652Z,67.8
2023-01-27T15:23:57.777Z,67.8
2023-01-27T15:25:13.960Z,67.8
2023-01-27T15:26:29.160Z,67.8
2023-01-27T15:27:45.425Z,67.8
2023-01-27T15:29:01.622Z,67.8
2023-01-27T15:30:17.805Z,67.8
2023-01-27T15:31:33.988Z,67.9
2023-01-27T15:32:50.181Z,67.9
2023-01-27T15:34:06.288Z,67.9
2023-01-27T15:35:22.493Z,67.9
2023-01-27T15:36:38.747Z,67.9
2023-01-27T15:37:54.855Z,67.9
2023-01-27T15:39:11.120Z,67.9
2023-01-27T15:40:27.309Z,67.9
2023-01-27T15:41:43.428Z,67.9
2023-01-27T15:42:58.717Z,67.9
2023-01-27T15:44:14.910Z,67.9
2023-01-27T15:45:31.099Z,68
2023-01-27T15:46:47.277Z,68
2023-01-27T15:48:03.473Z,68
2023-01-27T15:49:19.577Z,68
2023-01-27T15:50:35.756Z,68
2023-01-27T15:51:52.032Z,68
2023-01-27T15:53:08.143Z,68
2023-01-27T15:54:24.407Z,68
2023-01-27T15:55:40.597Z,68
2023-01-27T15:56:56.711Z,68
2023-01-27T15:58:12.973Z,68
2023-01-27T15:59:28.186Z,68
2023-01-27T16:00:44.371Z,68
2023-01-27T16:02:00.561Z,68
2023-01-27T16:03:16.676Z,68
2023-01-27T16:04:32.873Z,68
2023-01-27T16:05:49.136Z,68
2023-01-27T16:07:05.331Z,68
2023-01-27T16:08:21.516Z,68.1
2023-01-27T16:09:37.705Z,68.1
2023-01-27T16:10:53.901Z,68
2023-01-27T16:12:10.084Z,68.1
2023-01-27T16:13:26.269Z,68.1
2023-01-27T16:14:42.459Z,68.1
2023-01-27T16:15:57.585Z,68.1
2023-01-27T16:17:13.768Z,68.1
2023-01-27T16:18:30.037Z,68.1
2023-01-27T16:19:46.138Z,68.1
2023-01-27T16:21:02.433Z,68
2023-01-27T16:22:18.609Z,68
2023-01-27T16:23:34.809Z,68.1
2023-01-27T16:24:50.913Z,68.1
2023-01-27T16:26:07.180Z,68.1
2023-01-27T16:27:23.275Z,68.1
2023-01-27T16:28:39.478Z,68.1
2023-01-27T16:29:55.747Z,68.1
2023-01-27T16:31:11.936Z,68
2023-01-27T16:32:27.147Z,68
2023-01-27T16:33:43.334Z,68.1
2023-01-27T16:34:59.432Z,68.1
2023-01-27T16:36:15.611Z,68.1
2023-01-27T16:37:31.897Z,68.1
2023-01-27T16:38:48.078Z,68.1
2023-01-27T16:40:03.307Z,68.2
2023-01-27T16:41:19.488Z,68.1
2023-01-27T16:42:35.585Z,68.2
2023-01-27T16:43:51.856Z,68.2
2023-01-27T16:45:08.055Z,68.2
2023-01-27T16:46:24.249Z,68.2
2023-01-27T16:47:40.348Z,68.2
2023-01-27T16:48:56.629Z,68.1
2023-01-27T16:50:12.729Z,68.1
2023-01-27T16:51:29.011Z,68.1
2023-01-27T16:52:45.185Z,68.1
2023-01-27T16:54:01.382Z,68.1
2023-01-27T16:55:17.484Z,68
2023-01-27T16:56:32.766Z,68.1
2023-01-27T16:57:48.868Z,68.1
2023-01-27T16:59:05.149Z,68.1
2023-01-27T17:00:21.349Z,68.1
2023-01-27T17:01:37.542Z,68
2023-01-27T17:02:53.639Z,68
2023-01-27T17:04:09.907Z,68.1
2023-01-27T17:05:26.014Z,68.1